sensor_id;sensor_type;location;lat;lon;timestamp;pressure;altitude;pressure_sealevel;temperature;humidity
22582;BME280;47125;48.542;9.052;2023-05-20T00:12:55;96123.25;;;13.50;73.13
22582;BME280;47125;48.542;9.052;2023-05-20T00:22:57;96117.94;;;13.55;72.03
22582;BME280;47125;48.542;9.052;2023-05-20T00:33:01;96110.59;;;13.45;73.12
22582;BME280;47125;48.542;9.052;2023-05-20T00:43:04;96110.41;;;13.52;72.76
22582;BME280;47125;48.542;9.052;2023-05-20T00:53:07;96099.91;;;13.50;72.72
22582;BME280;47125;48.542;9.052;2023-05-20T01:03:11;96098.09;;;13.56;71.69
22582;BME280;47125;48.542;9.052;2023-05-20T01:13:16;96089.72;;;13.52;71.44
22582;BME280;47125;48.542;9.052;2023-05-20T01:23:21;96086.38;;;13.40;71.76
22582;BME280;47125;48.542;9.052;2023-05-20T01:33:23;96077.03;;;13.43;71.97
22582;BME280;47125;48.542;9.052;2023-05-20T01:43:28;96075.38;;;13.37;72.88
22582;BME280;47125;48.542;9.052;2023-05-20T01:53:31;96071.78;;;13.31;73.24
22582;BME280;47125;48.542;9.052;2023-05-20T02:03:34;96064.91;;;13.40;73.38
22582;BME280;47125;48.542;9.052;2023-05-20T02:13:37;96061.38;;;13.35;73.91
22582;BME280;47125;48.542;9.052;2023-05-20T02:23:41;96069.38;;;13.30;74.54
22582;BME280;47125;48.542;9.052;2023-05-20T02:33:43;96066.94;;;13.28;75.04
22582;BME280;47125;48.542;9.052;2023-05-20T02:43:47;96076.94;;;13.33;75.00
22582;BME280;47125;48.542;9.052;2023-05-20T02:53:50;96074.97;;;13.28;75.62
22582;BME280;47125;48.542;9.052;2023-05-20T03:03:53;96067.16;;;13.21;75.81
22582;BME280;47125;48.542;9.052;2023-05-20T03:13:56;96061.13;;;13.09;75.85
22582;BME280;47125;48.542;9.052;2023-05-20T03:24:00;96065.47;;;13.15;76.29
22582;BME280;47125;48.542;9.052;2023-05-20T03:34:02;96069.25;;;13.19;76.80
22582;BME280;47125;48.542;9.052;2023-05-20T03:44:06;96061.22;;;13.19;77.03
22582;BME280;47125;48.542;9.052;2023-05-20T03:54:08;96057.16;;;13.17;76.88
22582;BME280;47125;48.542;9.052;2023-05-20T04:04:12;96062.88;;;13.25;77.16
22582;BME280;47125;48.542;9.052;2023-05-20T04:14:15;96053.75;;;13.21;77.52
22582;BME280;47125;48.542;9.052;2023-05-20T04:24:20;96056.50;;;13.32;77.53
22582;BME280;47125;48.542;9.052;2023-05-20T04:34:27;96061.72;;;13.16;78.27
22582;BME280;47125;48.542;9.052;2023-05-20T04:44:31;96047.94;;;13.30;77.96
22582;BME280;47125;48.542;9.052;2023-05-20T04:54:33;96067.06;;;13.38;77.96
22582;BME280;47125;48.542;9.052;2023-05-20T05:04:37;96062.63;;;13.49;78.09
22582;BME280;47125;48.542;9.052;2023-05-20T05:14:40;96044.97;;;13.58;78.30
22582;BME280;47125;48.542;9.052;2023-05-20T05:24:43;96027.06;;;13.63;78.32
22582;BME280;47125;48.542;9.052;2023-05-20T05:34:46;96038.56;;;13.64;78.36
22582;BME280;47125;48.542;9.052;2023-05-20T05:44:49;96026.78;;;13.65;78.75
22582;BME280;47125;48.542;9.052;2023-05-20T05:54:52;96033.22;;;13.64;78.86
22582;BME280;47125;48.542;9.052;2023-05-20T06:04:57;96021.81;;;13.78;78.75
22582;BME280;47125;48.542;9.052;2023-05-20T06:14:59;96028.97;;;14.00;78.38
22582;BME280;47125;48.542;9.052;2023-05-20T06:25:03;96012.78;;;13.90;79.57
22582;BME280;47125;48.542;9.052;2023-05-20T06:35:06;96017.75;;;14.13;79.07
22582;BME280;47125;48.542;9.052;2023-05-20T06:45:11;96008.69;;;14.24;79.62
22582;BME280;47125;48.542;9.052;2023-05-20T06:55:14;95997.31;;;14.44;78.63
22582;BME280;47125;48.542;9.052;2023-05-20T07:05:18;95994.47;;;14.70;78.59
22582;BME280;47125;48.542;9.052;2023-05-20T07:15:20;95994.22;;;14.77;77.09
22582;BME280;47125;48.542;9.052;2023-05-20T07:25:24;95992.69;;;15.11;76.89
22582;BME280;47125;48.542;9.052;2023-05-20T07:35:26;95990.28;;;15.10;75.26
22582;BME280;47125;48.542;9.052;2023-05-20T07:45:30;95961.25;;;15.27;77.48
22582;BME280;47125;48.542;9.052;2023-05-20T07:55:33;95968.53;;;15.36;74.38
22582;BME280;47125;48.542;9.052;2023-05-20T08:05:39;95983.69;;;15.53;73.46
22582;BME280;47125;48.542;9.052;2023-05-20T08:15:41;95988.00;;;15.59;71.51
22582;BME280;47125;48.542;9.052;2023-05-20T08:25:45;95988.78;;;15.89;72.29
22582;BME280;47125;48.542;9.052;2023-05-20T08:35:48;95983.38;;;15.99;70.46
22582;BME280;47125;48.542;9.052;2023-05-20T08:45:52;95975.22;;;16.45;71.31
22582;BME280;47125;48.542;9.052;2023-05-20T08:55:55;95969.31;;;16.33;71.29
22582;BME280;47125;48.542;9.052;2023-05-20T09:06:03;95965.16;;;16.76;69.80
22582;BME280;47125;48.542;9.052;2023-05-20T09:16:08;95970.41;;;17.01;67.98
22582;BME280;47125;48.542;9.052;2023-05-20T09:26:12;95967.88;;;17.20;67.95
22582;BME280;47125;48.542;9.052;2023-05-20T09:36:15;95956.56;;;17.18;64.62
22582;BME280;47125;48.542;9.052;2023-05-20T09:46:18;95952.84;;;17.47;64.92
22582;BME280;47125;48.542;9.052;2023-05-20T09:56:22;95957.44;;;17.86;66.06
22582;BME280;47125;48.542;9.052;2023-05-20T10:06:33;95937.84;;;17.70;66.10
22582;BME280;47125;48.542;9.052;2023-05-20T10:16:41;95942.00;;;18.20;63.43
22582;BME280;47125;48.542;9.052;2023-05-20T10:26:53;95942.09;;;18.34;62.40
22582;BME280;47125;48.542;9.052;2023-05-20T10:36:56;95927.19;;;19.02;62.52
22582;BME280;47125;48.542;9.052;2023-05-20T10:47:04;95927.56;;;19.14;60.19
22582;BME280;47125;48.542;9.052;2023-05-20T10:57:26;95911.50;;;19.42;59.02
22582;BME280;47125;48.542;9.052;2023-05-20T11:07:30;95902.75;;;20.09;61.89
22582;BME280;47125;48.542;9.052;2023-05-20T11:17:34;95884.53;;;19.83;57.11
22582;BME280;47125;48.542;9.052;2023-05-20T11:27:39;95888.88;;;19.65;56.99
22582;BME280;47125;48.542;9.052;2023-05-20T11:37:41;95876.38;;;19.69;60.26
22582;BME280;47125;48.542;9.052;2023-05-20T11:47:45;95876.13;;;20.79;59.00
22582;BME280;47125;48.542;9.052;2023-05-20T11:57:47;95853.50;;;21.86;55.05
22582;BME280;47125;48.542;9.052;2023-05-20T12:07:53;95846.63;;;21.58;52.40
22582;BME280;47125;48.542;9.052;2023-05-20T12:17:56;95834.59;;;21.51;53.89
22582;BME280;47125;48.542;9.052;2023-05-20T12:28:01;95829.22;;;21.37;53.01
22582;BME280;47125;48.542;9.052;2023-05-20T12:38:03;95831.19;;;21.23;52.82
22582;BME280;47125;48.542;9.052;2023-05-20T12:48:08;95821.81;;;21.29;54.44
22582;BME280;47125;48.542;9.052;2023-05-20T12:58:11;95821.38;;;22.67;51.81
22582;BME280;47125;48.542;9.052;2023-05-20T13:08:15;95808.91;;;23.09;48.92
22582;BME280;47125;48.542;9.052;2023-05-20T13:18:17;95794.63;;;22.69;49.40
22582;BME280;47125;48.542;9.052;2023-05-20T13:28:21;95802.25;;;22.02;50.97
22582;BME280;47125;48.542;9.052;2023-05-20T13:38:23;95784.63;;;21.91;52.50
22582;BME280;47125;48.542;9.052;2023-05-20T13:48:27;95771.75;;;22.14;50.53
22582;BME280;47125;48.542;9.052;2023-05-20T13:58:30;95767.19;;;22.48;52.31
22582;BME280;47125;48.542;9.052;2023-05-20T14:08:34;95753.59;;;21.92;50.78
22582;BME280;47125;48.542;9.052;2023-05-20T14:18:36;95745.88;;;22.42;50.88
22582;BME280;47125;48.542;9.052;2023-05-20T14:28:40;95744.88;;;22.29;50.89
22582;BME280;47125;48.542;9.052;2023-05-20T14:38:42;95730.75;;;22.02;49.98
22582;BME280;47125;48.542;9.052;2023-05-20T14:48:46;95718.00;;;21.80;50.91
22582;BME280;47125;48.542;9.052;2023-05-20T14:58:48;95733.53;;;21.79;48.85
22582;BME280;47125;48.542;9.052;2023-05-20T15:08:52;95734.16;;;22.24;48.53
22582;BME280;47125;48.542;9.052;2023-05-20T15:18:55;95729.59;;;21.94;48.37
22582;BME280;47125;48.542;9.052;2023-05-20T15:28:58;95747.06;;;22.75;47.93
22582;BME280;47125;48.542;9.052;2023-05-20T15:39:01;95743.69;;;22.87;49.00
22582;BME280;47125;48.542;9.052;2023-05-20T15:49:05;95750.00;;;22.22;47.43
22582;BME280;47125;48.542;9.052;2023-05-20T15:59:07;95747.31;;;22.39;48.62
22582;BME280;47125;48.542;9.052;2023-05-20T16:09:11;95738.38;;;22.56;47.69
22582;BME280;47125;48.542;9.052;2023-05-20T16:19:14;95723.81;;;22.69;47.46
22582;BME280;47125;48.542;9.052;2023-05-20T16:29:18;95722.38;;;22.72;49.06
22582;BME280;47125;48.542;9.052;2023-05-20T16:39:20;95720.75;;;22.45;49.47
22582;BME280;47125;48.542;9.052;2023-05-20T16:49:24;95724.88;;;22.17;49.90
22582;BME280;47125;48.542;9.052;2023-05-20T16:59:26;95726.06;;;21.93;52.35
22582;BME280;47125;48.542;9.052;2023-05-20T17:09:31;95732.84;;;21.65;51.73
22582;BME280;47125;48.542;9.052;2023-05-20T17:19:34;95744.44;;;21.57;52.80
22582;BME280;47125;48.542;9.052;2023-05-20T17:29:38;95741.69;;;21.49;52.93
22582;BME280;47125;48.542;9.052;2023-05-20T17:39:40;95744.13;;;21.28;55.67
22582;BME280;47125;48.542;9.052;2023-05-20T17:49:44;95754.41;;;21.09;56.71
22582;BME280;47125;48.542;9.052;2023-05-20T17:59:47;95747.31;;;20.85;59.05
22582;BME280;47125;48.542;9.052;2023-05-20T18:09:50;95739.53;;;20.70;57.70
22582;BME280;47125;48.542;9.052;2023-05-20T18:19:53;95739.78;;;20.60;59.55
22582;BME280;47125;48.542;9.052;2023-05-20T18:29:57;95744.28;;;20.65;57.55
22582;BME280;47125;48.542;9.052;2023-05-20T18:39:59;95752.81;;;20.36;59.64
22582;BME280;47125;48.542;9.052;2023-05-20T18:50:03;95754.41;;;20.23;61.17
22582;BME280;47125;48.542;9.052;2023-05-20T19:00:07;95745.31;;;20.06;61.76
22582;BME280;47125;48.542;9.052;2023-05-20T19:10:14;95750.13;;;19.95;62.64
22582;BME280;47125;48.542;9.052;2023-05-20T19:20:16;95751.53;;;19.79;63.45
22582;BME280;47125;48.542;9.052;2023-05-20T19:30:20;95767.56;;;19.62;64.45
22582;BME280;47125;48.542;9.052;2023-05-20T19:40:23;95784.91;;;19.47;65.28
22582;BME280;47125;48.542;9.052;2023-05-20T19:50:26;95782.28;;;19.42;65.67
22582;BME280;47125;48.542;9.052;2023-05-20T20:00:29;95786.63;;;19.24;66.09
22582;BME280;47125;48.542;9.052;2023-05-20T20:10:33;95785.63;;;19.20;66.35
22582;BME280;47125;48.542;9.052;2023-05-20T20:20:37;95774.91;;;19.29;65.71
22582;BME280;47125;48.542;9.052;2023-05-20T20:30:42;95770.00;;;18.99;67.04
22582;BME280;47125;48.542;9.052;2023-05-20T20:40:44;95771.25;;;19.06;66.83
22582;BME280;47125;48.542;9.052;2023-05-20T20:50:48;95772.56;;;18.90;67.83
22582;BME280;47125;48.542;9.052;2023-05-20T21:00:51;95756.63;;;19.07;67.02
22582;BME280;47125;48.542;9.052;2023-05-20T21:10:54;95759.25;;;18.94;68.07
22582;BME280;47125;48.542;9.052;2023-05-20T21:20:59;95753.50;;;18.82;67.84
22582;BME280;47125;48.542;9.052;2023-05-20T21:31:03;95741.00;;;18.67;68.34
22582;BME280;47125;48.542;9.052;2023-05-20T21:41:06;95730.50;;;18.65;68.69
22582;BME280;47125;48.542;9.052;2023-05-20T21:51:10;95719.34;;;18.30;69.99
22582;BME280;47125;48.542;9.052;2023-05-20T22:01:12;95719.72;;;18.42;69.34
22582;BME280;47125;48.542;9.052;2023-05-20T22:11:16;95718.63;;;18.24;70.19
22582;BME280;47125;48.542;9.052;2023-05-20T22:21:19;95716.88;;;18.33;69.96
22582;BME280;47125;48.542;9.052;2023-05-20T22:31:24;95710.47;;;18.29;69.77
22582;BME280;47125;48.542;9.052;2023-05-20T22:41:27;95698.41;;;18.22;69.99
22582;BME280;47125;48.542;9.052;2023-05-20T22:51:31;95703.16;;;18.11;70.74
22582;BME280;47125;48.542;9.052;2023-05-20T23:01:35;95687.41;;;17.94;71.53
22582;BME280;47125;48.542;9.052;2023-05-20T23:11:39;95682.16;;;17.84;72.28
22582;BME280;47125;48.542;9.052;2023-05-20T23:21:42;95679.81;;;17.78;72.18
22582;BME280;47125;48.542;9.052;2023-05-20T23:31:45;95670.59;;;17.60;72.54
22582;BME280;47125;48.542;9.052;2023-05-20T23:41:51;95666.19;;;17.40;73.82
22582;BME280;47125;48.542;9.052;2023-05-20T23:51:54;95672.13;;;17.42;73.83
